DAL1PR KSAN-KSLC
Flight info
| Callsign | DAL1PR |
|---|---|
| Flight time | 1h 31m |
| Altitude | 36000 |
| Route | ZZOOO4 MTBAL CADEZ HAKMN/N0452F350 Q73 LAKRR MLF PITTT1 |
| Aircraft | A21N/M-SDE3FGHIRWY/LB1 |
Departure
| Time | 2026-04-20 19:38 |
|---|---|
| Airport | San Diego International Airport (KSAN) |
Arrival
| Time | 2026-04-20 21:10 |
|---|---|
| Airport | Salt Lake City International Airport (KSLC) |
| Time | Latitude | Longitude | Altitude | Speed | Heading |
|---|---|---|---|---|---|
| 2026-04-20 19:13 | 32.73339 | -117.19913 | 23 ft | 0 kts | 117° |
| 2026-04-20 19:28 | 32.73342 | -117.19920 | 23 ft | 2 kts | 117° |
| 2026-04-20 19:28 | 32.73349 | -117.19936 | 23 ft | 2 kts | 117° |
| 2026-04-20 19:29 | 32.73353 | -117.19946 | 23 ft | 2 kts | 110° |
| 2026-04-20 19:29 | 32.73354 | -117.19964 | 23 ft | 2 kts | 75° |
| 2026-04-20 19:29 | 32.73347 | -117.19979 | 23 ft | 2 kts | 46° |
| 2026-04-20 19:29 | 32.73335 | -117.19989 | 23 ft | 1 kts | 19° |
| 2026-04-20 19:30 | 32.73329 | -117.19991 | 23 ft | 1 kts | 11° |
| 2026-04-20 19:30 | 32.73327 | -117.19992 | 23 ft | 0 kts | 13° |
| 2026-04-20 19:32 | 32.73327 | -117.19991 | 23 ft | 0 kts | 13° |
| 2026-04-20 19:33 | 32.73340 | -117.19988 | 23 ft | 5 kts | 14° |
| 2026-04-20 19:33 | 32.73407 | -117.19968 | 23 ft | 14 kts | 13° |
| 2026-04-20 19:33 | 32.73469 | -117.19896 | 23 ft | 10 kts | 101° |
| 2026-04-20 19:33 | 32.73450 | -117.19777 | 24 ft | 18 kts | 107° |
| 2026-04-20 19:34 | 32.73408 | -117.19607 | 24 ft | 23 kts | 106° |
| 2026-04-20 19:34 | 32.73365 | -117.19428 | 25 ft | 22 kts | 105° |
| 2026-04-20 19:34 | 32.73323 | -117.19257 | 25 ft | 21 kts | 106° |
| 2026-04-20 19:34 | 32.73284 | -117.19093 | 25 ft | 20 kts | 106° |
| 2026-04-20 19:35 | 32.73245 | -117.18936 | 25 ft | 19 kts | 106° |
| 2026-04-20 19:35 | 32.73208 | -117.18783 | 25 ft | 19 kts | 106° |
| 2026-04-20 19:35 | 32.73172 | -117.18632 | 25 ft | 18 kts | 106° |
| 2026-04-20 19:35 | 32.73136 | -117.18486 | 25 ft | 18 kts | 106° |
| 2026-04-20 19:36 | 32.73101 | -117.18343 | 26 ft | 17 kts | 105° |
| 2026-04-20 19:36 | 32.73068 | -117.18205 | 26 ft | 17 kts | 106° |
| 2026-04-20 19:36 | 32.73059 | -117.18133 | 26 ft | 4 kts | 62° |
| 2026-04-20 19:36 | 32.73091 | -117.18113 | 26 ft | 7 kts | 8° |
| 2026-04-20 19:37 | 32.73152 | -117.18142 | 26 ft | 11 kts | 306° |
| 2026-04-20 19:37 | 32.73173 | -117.18211 | 26 ft | 11 kts | 286° |
| 2026-04-20 19:37 | 32.73262 | -117.18588 | 26 ft | 85 kts | 286° |
| 2026-04-20 19:37 | 32.73491 | -117.19532 | 26 ft | 149 kts | 286° |
| 2026-04-20 19:38 | 32.73814 | -117.20809 | 391 ft | 167 kts | 286° |
| 2026-04-20 19:38 | 32.74140 | -117.22124 | 1096 ft | 167 kts | 285° |
| 2026-04-20 19:38 | 32.74456 | -117.23443 | 1817 ft | 165 kts | 285° |
| 2026-04-20 19:38 | 32.74774 | -117.24776 | 2167 ft | 175 kts | 286° |
| 2026-04-20 19:39 | 32.75121 | -117.26225 | 2438 ft | 190 kts | 286° |
| 2026-04-20 19:39 | 32.75498 | -117.27793 | 2729 ft | 206 kts | 286° |
| 2026-04-20 19:39 | 32.75909 | -117.29506 | 3036 ft | 223 kts | 286° |
| 2026-04-20 19:39 | 32.76356 | -117.31369 | 3300 ft | 244 kts | 285° |
| 2026-04-20 19:40 | 32.76479 | -117.33375 | 3856 ft | 251 kts | 256° |
| 2026-04-20 19:40 | 32.75657 | -117.35171 | 4567 ft | 250 kts | 224° |
| 2026-04-20 19:40 | 32.74188 | -117.36200 | 5277 ft | 249 kts | 194° |
| 2026-04-20 19:40 | 32.72481 | -117.36230 | 5949 ft | 250 kts | 164° |
| 2026-04-20 19:41 | 32.70986 | -117.35226 | 6611 ft | 252 kts | 135° |
| 2026-04-20 19:41 | 32.69848 | -117.33660 | 7295 ft | 254 kts | 131° |
| 2026-04-20 19:41 | 32.68691 | -117.32053 | 7959 ft | 257 kts | 132° |
| 2026-04-20 19:41 | 32.67524 | -117.30466 | 8624 ft | 259 kts | 133° |
| 2026-04-20 19:42 | 32.66333 | -117.28863 | 9283 ft | 261 kts | 133° |
| 2026-04-20 19:42 | 32.65133 | -117.27254 | 9911 ft | 263 kts | 133° |
| 2026-04-20 19:42 | 32.63940 | -117.25612 | 10507 ft | 266 kts | 127° |
| 2026-04-20 19:42 | 32.63102 | -117.23640 | 11056 ft | 273 kts | 108° |
| 2026-04-20 19:43 | 32.62763 | -117.21368 | 11387 ft | 289 kts | 98° |
| 2026-04-20 19:43 | 32.62565 | -117.18948 | 11658 ft | 304 kts | 97° |
| 2026-04-20 19:43 | 32.62367 | -117.16377 | 11926 ft | 319 kts | 96° |
| 2026-04-20 19:43 | 32.62549 | -117.13714 | 12140 ft | 338 kts | 73° |
| 2026-04-20 19:44 | 32.63753 | -117.11286 | 12551 ft | 348 kts | 50° |
| 2026-04-20 19:44 | 32.65435 | -117.09196 | 13141 ft | 351 kts | 46° |
| 2026-04-20 19:44 | 32.67130 | -117.07103 | 13665 ft | 355 kts | 49° |
| 2026-04-20 19:44 | 32.68763 | -117.04912 | 14200 ft | 358 kts | 51° |
| 2026-04-20 19:45 | 32.70367 | -117.02622 | 14737 ft | 361 kts | 52° |
| 2026-04-20 19:45 | 32.71954 | -117.00294 | 15273 ft | 363 kts | 52° |
| 2026-04-20 19:45 | 32.73561 | -116.97979 | 15795 ft | 366 kts | 51° |
| 2026-04-20 19:45 | 32.75183 | -116.95668 | 16288 ft | 369 kts | 51° |
| 2026-04-20 19:46 | 32.76836 | -116.93314 | 16777 ft | 372 kts | 51° |
| 2026-04-20 19:46 | 32.78507 | -116.90929 | 17246 ft | 375 kts | 51° |
| 2026-04-20 19:46 | 32.80189 | -116.88524 | 17720 ft | 378 kts | 51° |
| 2026-04-20 19:46 | 32.81870 | -116.86123 | 18188 ft | 381 kts | 51° |
| 2026-04-20 19:47 | 32.83563 | -116.83705 | 18651 ft | 383 kts | 50° |
| 2026-04-20 19:47 | 32.85261 | -116.81278 | 19100 ft | 386 kts | 51° |
| 2026-04-20 19:47 | 32.86969 | -116.78835 | 19548 ft | 388 kts | 50° |
| 2026-04-20 19:47 | 32.88696 | -116.76359 | 20013 ft | 389 kts | 50° |
| 2026-04-20 19:48 | 32.90429 | -116.73874 | 20453 ft | 391 kts | 50° |
| 2026-04-20 19:48 | 32.92162 | -116.71387 | 20894 ft | 393 kts | 50° |
| 2026-04-20 19:48 | 32.93902 | -116.68887 | 21310 ft | 396 kts | 50° |
| 2026-04-20 19:48 | 32.95675 | -116.66338 | 21719 ft | 398 kts | 50° |
| 2026-04-20 19:49 | 32.97432 | -116.63811 | 22133 ft | 400 kts | 50° |
| 2026-04-20 19:49 | 32.99218 | -116.61281 | 22532 ft | 402 kts | 47° |
| 2026-04-20 19:49 | 33.01302 | -116.59026 | 22908 ft | 404 kts | 36° |
| 2026-04-20 19:49 | 33.03674 | -116.57272 | 23271 ft | 405 kts | 26° |
| 2026-04-20 19:50 | 33.06247 | -116.55868 | 23639 ft | 407 kts | 22° |
| 2026-04-20 19:50 | 33.08861 | -116.54533 | 23977 ft | 410 kts | 22° |
| 2026-04-20 19:50 | 33.11478 | -116.53203 | 24297 ft | 413 kts | 22° |
| 2026-04-20 19:50 | 33.14136 | -116.51839 | 24640 ft | 415 kts | 22° |
| 2026-04-20 19:51 | 33.16804 | -116.50457 | 24961 ft | 418 kts | 22° |
| 2026-04-20 19:51 | 33.19476 | -116.49065 | 25287 ft | 420 kts | 22° |
| 2026-04-20 19:51 | 33.22175 | -116.47652 | 25614 ft | 422 kts | 22° |
| 2026-04-20 19:51 | 33.24847 | -116.46252 | 25922 ft | 424 kts | 22° |
| 2026-04-20 19:52 | 33.27566 | -116.44824 | 26240 ft | 426 kts | 22° |
| 2026-04-20 19:52 | 33.30264 | -116.43407 | 26530 ft | 428 kts | 22° |
| 2026-04-20 19:52 | 33.32993 | -116.41972 | 26814 ft | 430 kts | 22° |
| 2026-04-20 19:52 | 33.35737 | -116.40529 | 27085 ft | 432 kts | 22° |
| 2026-04-20 19:53 | 33.38427 | -116.38855 | 27321 ft | 436 kts | 32° |
| 2026-04-20 19:53 | 33.40790 | -116.36603 | 27601 ft | 437 kts | 44° |
| 2026-04-20 19:53 | 33.42757 | -116.33852 | 27909 ft | 437 kts | 54° |
| 2026-04-20 19:53 | 33.44537 | -116.30892 | 28185 ft | 439 kts | 56° |
| 2026-04-20 19:54 | 33.46284 | -116.27897 | 28414 ft | 442 kts | 56° |
| 2026-04-20 19:54 | 33.48056 | -116.24867 | 28671 ft | 444 kts | 56° |
| 2026-04-20 19:54 | 33.49834 | -116.21853 | 28950 ft | 445 kts | 56° |
| 2026-04-20 19:54 | 33.51639 | -116.18817 | 29199 ft | 447 kts | 55° |
| 2026-04-20 19:55 | 33.53431 | -116.15813 | 29428 ft | 449 kts | 55° |
| 2026-04-20 19:55 | 33.55260 | -116.12748 | 29683 ft | 451 kts | 55° |
| 2026-04-20 19:55 | 33.57072 | -116.09713 | 29930 ft | 452 kts | 55° |
| 2026-04-20 19:55 | 33.58949 | -116.06687 | 30163 ft | 454 kts | 52° |
| 2026-04-20 19:56 | 33.60972 | -116.03774 | 30401 ft | 456 kts | 49° |
| 2026-04-20 19:56 | 33.63140 | -116.01004 | 30634 ft | 458 kts | 45° |
| 2026-04-20 19:56 | 33.65435 | -115.98322 | 30864 ft | 459 kts | 44° |
| 2026-04-20 19:56 | 33.67743 | -115.95681 | 31101 ft | 461 kts | 44° |
| 2026-04-20 19:57 | 33.70047 | -115.93050 | 31382 ft | 461 kts | 44° |
| 2026-04-20 19:57 | 33.72359 | -115.90402 | 31703 ft | 460 kts | 44° |
| 2026-04-20 19:57 | 33.74687 | -115.87728 | 32049 ft | 458 kts | 44° |
| 2026-04-20 19:57 | 33.76961 | -115.85111 | 32387 ft | 457 kts | 44° |
| 2026-04-20 19:58 | 33.79268 | -115.82449 | 32720 ft | 455 kts | 44° |
| 2026-04-20 19:58 | 33.81522 | -115.79847 | 33023 ft | 454 kts | 44° |
| 2026-04-20 19:58 | 33.83786 | -115.77230 | 33317 ft | 454 kts | 44° |
| 2026-04-20 19:58 | 33.86061 | -115.74598 | 33604 ft | 453 kts | 44° |
| 2026-04-20 19:59 | 33.88337 | -115.71963 | 33904 ft | 452 kts | 44° |
| 2026-04-20 19:59 | 33.90595 | -115.69346 | 34231 ft | 451 kts | 44° |
| 2026-04-20 19:59 | 33.92851 | -115.66728 | 34569 ft | 449 kts | 44° |
| 2026-04-20 19:59 | 33.95097 | -115.64119 | 34861 ft | 449 kts | 44° |
| 2026-04-20 20:00 | 33.97336 | -115.61517 | 35092 ft | 449 kts | 44° |
| 2026-04-20 20:00 | 33.99585 | -115.58903 | 35292 ft | 450 kts | 44° |
| 2026-04-20 20:00 | 34.01811 | -115.56313 | 35492 ft | 451 kts | 44° |
| 2026-04-20 20:00 | 34.04088 | -115.53661 | 35692 ft | 451 kts | 44° |
| 2026-04-20 20:01 | 34.06340 | -115.51036 | 35905 ft | 451 kts | 44° |
| 2026-04-20 20:01 | 34.10856 | -115.45764 | 36006 ft | 452 kts | 44° |
| 2026-04-20 20:02 | 34.15409 | -115.40563 | 36000 ft | 452 kts | 39° |
| 2026-04-20 20:02 | 34.20563 | -115.36297 | 35996 ft | 451 kts | 27° |
| 2026-04-20 20:03 | 34.26381 | -115.33375 | 35995 ft | 450 kts | 16° |
| 2026-04-20 20:03 | 34.32492 | -115.31831 | 35999 ft | 449 kts | 8° |
| 2026-04-20 20:04 | 34.38665 | -115.30643 | 36004 ft | 448 kts | 8° |
| 2026-04-20 20:04 | 34.44794 | -115.29448 | 36014 ft | 448 kts | 8° |
| 2026-04-20 20:05 | 34.50935 | -115.28229 | 36028 ft | 448 kts | 8° |
| 2026-04-20 20:05 | 34.57091 | -115.26997 | 36032 ft | 447 kts | 8° |
| 2026-04-20 20:06 | 34.63233 | -115.25764 | 36030 ft | 448 kts | 8° |
| 2026-04-20 20:06 | 34.69376 | -115.24529 | 36032 ft | 448 kts | 9° |
| 2026-04-20 20:07 | 34.75509 | -115.23295 | 36024 ft | 447 kts | 9° |
| 2026-04-20 20:07 | 34.81641 | -115.22057 | 36032 ft | 447 kts | 9° |
| 2026-04-20 20:08 | 34.87758 | -115.20821 | 36044 ft | 446 kts | 9° |
| 2026-04-20 20:08 | 34.93924 | -115.19573 | 36052 ft | 446 kts | 9° |
| 2026-04-20 20:09 | 35.00057 | -115.18330 | 36063 ft | 445 kts | 9° |
| 2026-04-20 20:09 | 35.06164 | -115.17091 | 36071 ft | 445 kts | 9° |
| 2026-04-20 20:10 | 35.12251 | -115.15854 | 36079 ft | 445 kts | 9° |
| 2026-04-20 20:10 | 35.18356 | -115.14610 | 36097 ft | 444 kts | 9° |
| 2026-04-20 20:11 | 35.24461 | -115.13367 | 36106 ft | 444 kts | 9° |
| 2026-04-20 20:11 | 35.30537 | -115.12125 | 36103 ft | 444 kts | 9° |
| 2026-04-20 20:12 | 35.36671 | -115.10870 | 36095 ft | 445 kts | 9° |
| 2026-04-20 20:12 | 35.42747 | -115.09581 | 36092 ft | 445 kts | 12° |
| 2026-04-20 20:13 | 35.48591 | -115.07151 | 36086 ft | 447 kts | 25° |
| 2026-04-20 20:13 | 35.51352 | -115.05312 | 36084 ft | 447 kts | 31° |
| 2026-04-20 20:13 | 35.56190 | -115.00638 | 36080 ft | 447 kts | 44° |
| 2026-04-20 20:14 | 35.60375 | -114.95001 | 36064 ft | 446 kts | 48° |
| 2026-04-20 20:14 | 35.64477 | -114.89299 | 36037 ft | 446 kts | 47° |
| 2026-04-20 20:15 | 35.68606 | -114.83639 | 36014 ft | 447 kts | 47° |
| 2026-04-20 20:15 | 35.72752 | -114.77977 | 36008 ft | 446 kts | 47° |
| 2026-04-20 20:16 | 35.76897 | -114.72302 | 36002 ft | 445 kts | 47° |
| 2026-04-20 20:16 | 35.81031 | -114.66627 | 36010 ft | 446 kts | 47° |
| 2026-04-20 20:17 | 35.85160 | -114.60951 | 36017 ft | 445 kts | 47° |
| 2026-04-20 20:17 | 35.89296 | -114.55253 | 36019 ft | 446 kts | 47° |
| 2026-04-20 20:18 | 35.93405 | -114.49582 | 36028 ft | 446 kts | 47° |
| 2026-04-20 20:18 | 35.97535 | -114.43871 | 36021 ft | 445 kts | 47° |
| 2026-04-20 20:19 | 36.01642 | -114.38184 | 36006 ft | 445 kts | 47° |
| 2026-04-20 20:19 | 36.05946 | -114.32770 | 36013 ft | 443 kts | 40° |
| 2026-04-20 20:20 | 36.10819 | -114.28151 | 36029 ft | 441 kts | 32° |
| 2026-04-20 20:20 | 36.16181 | -114.24433 | 36050 ft | 439 kts | 24° |
| 2026-04-20 20:21 | 36.21770 | -114.21365 | 36067 ft | 439 kts | 22° |
| 2026-04-20 20:21 | 36.27360 | -114.18353 | 36070 ft | 439 kts | 22° |
| 2026-04-20 20:22 | 36.32961 | -114.15314 | 36062 ft | 439 kts | 22° |
| 2026-04-20 20:22 | 36.38535 | -114.12279 | 36057 ft | 439 kts | 22° |
| 2026-04-20 20:23 | 36.44104 | -114.09238 | 36060 ft | 438 kts | 22° |
| 2026-04-20 20:23 | 36.49696 | -114.06180 | 36070 ft | 438 kts | 22° |
| 2026-04-20 20:24 | 36.55275 | -114.03121 | 36077 ft | 438 kts | 22° |
| 2026-04-20 20:24 | 36.60865 | -114.00053 | 36075 ft | 438 kts | 22° |
| 2026-04-20 20:25 | 36.66445 | -113.96986 | 36071 ft | 438 kts | 22° |
| 2026-04-20 20:25 | 36.72010 | -113.93922 | 36073 ft | 438 kts | 22° |
| 2026-04-20 20:26 | 36.77572 | -113.90854 | 36082 ft | 438 kts | 22° |
| 2026-04-20 20:26 | 36.83124 | -113.87788 | 36091 ft | 438 kts | 22° |
| 2026-04-20 20:27 | 36.88705 | -113.84700 | 36102 ft | 438 kts | 22° |
| 2026-04-20 20:27 | 36.94252 | -113.81627 | 36116 ft | 438 kts | 22° |
| 2026-04-20 20:28 | 36.99823 | -113.78535 | 36127 ft | 438 kts | 22° |
| 2026-04-20 20:28 | 37.05366 | -113.75452 | 36136 ft | 438 kts | 22° |
| 2026-04-20 20:29 | 37.10934 | -113.72352 | 36147 ft | 438 kts | 22° |
| 2026-04-20 20:29 | 37.16512 | -113.69240 | 36155 ft | 438 kts | 22° |
| 2026-04-20 20:30 | 37.22075 | -113.66134 | 36170 ft | 438 kts | 22° |
| 2026-04-20 20:30 | 37.27638 | -113.63022 | 36185 ft | 438 kts | 22° |
| 2026-04-20 20:31 | 37.33196 | -113.59906 | 36200 ft | 438 kts | 22° |
| 2026-04-20 20:31 | 37.38737 | -113.56796 | 36208 ft | 437 kts | 22° |
| 2026-04-20 20:32 | 37.44310 | -113.53662 | 36223 ft | 437 kts | 22° |
| 2026-04-20 20:32 | 37.49851 | -113.50541 | 36235 ft | 437 kts | 22° |
| 2026-04-20 20:33 | 37.55383 | -113.47420 | 36238 ft | 437 kts | 21° |
| 2026-04-20 20:33 | 37.60961 | -113.44270 | 36232 ft | 437 kts | 21° |
| 2026-04-20 20:34 | 37.66509 | -113.41129 | 36230 ft | 438 kts | 21° |
| 2026-04-20 20:34 | 37.72057 | -113.37985 | 36233 ft | 438 kts | 21° |
| 2026-04-20 20:35 | 37.77596 | -113.34840 | 36230 ft | 437 kts | 22° |
| 2026-04-20 20:35 | 37.83146 | -113.31682 | 36236 ft | 437 kts | 22° |
| 2026-04-20 20:36 | 37.88674 | -113.28533 | 36245 ft | 438 kts | 22° |
| 2026-04-20 20:36 | 37.94309 | -113.25317 | 36245 ft | 438 kts | 22° |
| 2026-04-20 20:37 | 37.99826 | -113.22163 | 36247 ft | 437 kts | 22° |
| 2026-04-20 20:37 | 38.05376 | -113.18985 | 36245 ft | 438 kts | 22° |
| 2026-04-20 20:38 | 38.10934 | -113.15797 | 36241 ft | 438 kts | 22° |
| 2026-04-20 20:38 | 38.16510 | -113.12595 | 36238 ft | 439 kts | 22° |
| 2026-04-20 20:39 | 38.22042 | -113.09410 | 36233 ft | 438 kts | 22° |
| 2026-04-20 20:39 | 38.27591 | -113.06210 | 36210 ft | 438 kts | 22° |
| 2026-04-20 20:40 | 38.33133 | -113.03008 | 36196 ft | 438 kts | 22° |
| 2026-04-20 20:40 | 38.38710 | -112.99854 | 36180 ft | 437 kts | 20° |
| 2026-04-20 20:41 | 38.44313 | -112.96897 | 36177 ft | 437 kts | 20° |
| 2026-04-20 20:41 | 38.49915 | -112.93935 | 36181 ft | 437 kts | 20° |
| 2026-04-20 20:42 | 38.55562 | -112.90926 | 36191 ft | 438 kts | 20° |
| 2026-04-20 20:42 | 38.61185 | -112.87920 | 36204 ft | 438 kts | 20° |
| 2026-04-20 20:43 | 38.66807 | -112.84908 | 36220 ft | 438 kts | 20° |
| 2026-04-20 20:43 | 38.72439 | -112.81884 | 36219 ft | 438 kts | 20° |
| 2026-04-20 20:44 | 38.78052 | -112.78865 | 36216 ft | 438 kts | 20° |
| 2026-04-20 20:44 | 38.83648 | -112.75850 | 36217 ft | 438 kts | 20° |
| 2026-04-20 20:45 | 38.89246 | -112.72832 | 36210 ft | 439 kts | 20° |
| 2026-04-20 20:45 | 38.92095 | -112.71294 | 36021 ft | 440 kts | 20° |
| 2026-04-20 20:45 | 38.94910 | -112.69774 | 35718 ft | 438 kts | 20° |
| 2026-04-20 20:46 | 38.97697 | -112.68265 | 35416 ft | 436 kts | 20° |
| 2026-04-20 20:46 | 39.00476 | -112.66760 | 35116 ft | 434 kts | 20° |
| 2026-04-20 20:46 | 39.03281 | -112.65238 | 34768 ft | 434 kts | 20° |
| 2026-04-20 20:46 | 39.06056 | -112.63733 | 34317 ft | 435 kts | 20° |
| 2026-04-20 20:47 | 39.08830 | -112.62225 | 33755 ft | 437 kts | 20° |
| 2026-04-20 20:47 | 39.11634 | -112.60702 | 33122 ft | 438 kts | 20° |
| 2026-04-20 20:47 | 39.14436 | -112.59182 | 32404 ft | 441 kts | 20° |
| 2026-04-20 20:47 | 39.17294 | -112.57626 | 31680 ft | 443 kts | 20° |
| 2026-04-20 20:48 | 39.20099 | -112.56097 | 31184 ft | 440 kts | 20° |
| 2026-04-20 20:48 | 39.22887 | -112.54574 | 30685 ft | 437 kts | 20° |
| 2026-04-20 20:48 | 39.25686 | -112.53044 | 30181 ft | 434 kts | 20° |
| 2026-04-20 20:48 | 39.28472 | -112.51573 | 29673 ft | 432 kts | 18° |
| 2026-04-20 20:49 | 39.31302 | -112.50295 | 29181 ft | 428 kts | 15° |
| 2026-04-20 20:49 | 39.34148 | -112.49239 | 28704 ft | 425 kts | 12° |
| 2026-04-20 20:49 | 39.37011 | -112.48279 | 28243 ft | 422 kts | 12° |
| 2026-04-20 20:49 | 39.39816 | -112.47359 | 27799 ft | 418 kts | 12° |
| 2026-04-20 20:50 | 39.42638 | -112.46432 | 27344 ft | 416 kts | 12° |
| 2026-04-20 20:50 | 39.45420 | -112.45517 | 26902 ft | 413 kts | 12° |
| 2026-04-20 20:50 | 39.48192 | -112.44601 | 26459 ft | 410 kts | 12° |
| 2026-04-20 20:50 | 39.50986 | -112.43674 | 26003 ft | 408 kts | 12° |
| 2026-04-20 20:51 | 39.53702 | -112.42770 | 25562 ft | 405 kts | 11° |
| 2026-04-20 20:51 | 39.56452 | -112.41856 | 25115 ft | 403 kts | 11° |
| 2026-04-20 20:51 | 39.59134 | -112.40964 | 24672 ft | 401 kts | 11° |
| 2026-04-20 20:51 | 39.61840 | -112.40062 | 24211 ft | 399 kts | 12° |
| 2026-04-20 20:52 | 39.64501 | -112.39175 | 23765 ft | 396 kts | 12° |
| 2026-04-20 20:52 | 39.67150 | -112.38290 | 23330 ft | 394 kts | 11° |
| 2026-04-20 20:52 | 39.69812 | -112.37401 | 22890 ft | 392 kts | 11° |
| 2026-04-20 20:52 | 39.72452 | -112.36519 | 22454 ft | 389 kts | 12° |
| 2026-04-20 20:53 | 39.75043 | -112.35652 | 22030 ft | 387 kts | 12° |
| 2026-04-20 20:53 | 39.77664 | -112.34776 | 21601 ft | 385 kts | 13° |
| 2026-04-20 20:53 | 39.80283 | -112.33898 | 21165 ft | 383 kts | 13° |
| 2026-04-20 20:53 | 39.82842 | -112.33039 | 20735 ft | 381 kts | 13° |
| 2026-04-20 20:54 | 39.85408 | -112.32175 | 20301 ft | 380 kts | 13° |
| 2026-04-20 20:54 | 39.87981 | -112.31312 | 19868 ft | 378 kts | 13° |
| 2026-04-20 20:54 | 39.90511 | -112.30462 | 19442 ft | 377 kts | 13° |
| 2026-04-20 20:54 | 39.93036 | -112.29611 | 19019 ft | 375 kts | 13° |
| 2026-04-20 20:55 | 39.95576 | -112.28755 | 18591 ft | 374 kts | 13° |
| 2026-04-20 20:55 | 39.98078 | -112.27912 | 18168 ft | 372 kts | 13° |
| 2026-04-20 20:55 | 40.00565 | -112.27073 | 17745 ft | 371 kts | 13° |
| 2026-04-20 20:55 | 40.03057 | -112.26230 | 17321 ft | 370 kts | 13° |
| 2026-04-20 20:56 | 40.05546 | -112.25388 | 16996 ft | 369 kts | 13° |
| 2026-04-20 20:56 | 40.08028 | -112.24550 | 17003 ft | 371 kts | 13° |
| 2026-04-20 20:56 | 40.10549 | -112.23697 | 17013 ft | 372 kts | 13° |
| 2026-04-20 20:56 | 40.13064 | -112.22845 | 17026 ft | 372 kts | 13° |
| 2026-04-20 20:57 | 40.15581 | -112.21991 | 17030 ft | 372 kts | 13° |
| 2026-04-20 20:57 | 40.18086 | -112.21140 | 17029 ft | 372 kts | 13° |
| 2026-04-20 20:57 | 40.20607 | -112.20285 | 16848 ft | 374 kts | 13° |
| 2026-04-20 20:57 | 40.23112 | -112.19434 | 16352 ft | 374 kts | 13° |
| 2026-04-20 20:58 | 40.25631 | -112.18578 | 15895 ft | 373 kts | 13° |
| 2026-04-20 20:58 | 40.28128 | -112.17729 | 15463 ft | 371 kts | 14° |
| 2026-04-20 20:58 | 40.30611 | -112.16884 | 15051 ft | 368 kts | 14° |
| 2026-04-20 20:58 | 40.33080 | -112.16043 | 15006 ft | 362 kts | 14° |
| 2026-04-20 20:59 | 40.35518 | -112.15211 | 15034 ft | 363 kts | 14° |
| 2026-04-20 20:59 | 40.37972 | -112.14373 | 15059 ft | 364 kts | 14° |
| 2026-04-20 20:59 | 40.40411 | -112.13539 | 15076 ft | 364 kts | 14° |
| 2026-04-20 20:59 | 40.42872 | -112.12699 | 15056 ft | 365 kts | 14° |
| 2026-04-20 21:00 | 40.45362 | -112.11848 | 14609 ft | 367 kts | 14° |
| 2026-04-20 21:00 | 40.47824 | -112.11007 | 14123 ft | 366 kts | 14° |
| 2026-04-20 21:00 | 40.50278 | -112.10173 | 13980 ft | 358 kts | 14° |
| 2026-04-20 21:00 | 40.52699 | -112.09350 | 13921 ft | 359 kts | 14° |
| 2026-04-20 21:01 | 40.55135 | -112.08630 | 13486 ft | 359 kts | 9° |
| 2026-04-20 21:01 | 40.57626 | -112.08195 | 13037 ft | 358 kts | 4° |
| 2026-04-20 21:01 | 40.60095 | -112.07991 | 12610 ft | 356 kts | 2° |
| 2026-04-20 21:01 | 40.62558 | -112.07873 | 12191 ft | 354 kts | 359° |
| 2026-04-20 21:02 | 40.65027 | -112.07983 | 11931 ft | 346 kts | 354° |
| 2026-04-20 21:02 | 40.67406 | -112.08247 | 11950 ft | 347 kts | 354° |
| 2026-04-20 21:02 | 40.69842 | -112.08544 | 11969 ft | 348 kts | 353° |
| 2026-04-20 21:02 | 40.72242 | -112.08837 | 11987 ft | 348 kts | 353° |
| 2026-04-20 21:03 | 40.74642 | -112.09122 | 12007 ft | 348 kts | 353° |
| 2026-04-20 21:03 | 40.77024 | -112.09404 | 11981 ft | 335 kts | 353° |
| 2026-04-20 21:03 | 40.79306 | -112.09674 | 11809 ft | 325 kts | 353° |
| 2026-04-20 21:03 | 40.81530 | -112.09939 | 11640 ft | 316 kts | 353° |
| 2026-04-20 21:04 | 40.83692 | -112.10194 | 11474 ft | 308 kts | 353° |
| 2026-04-20 21:04 | 40.85818 | -112.10442 | 11314 ft | 306 kts | 353° |
| 2026-04-20 21:04 | 40.87931 | -112.10680 | 11114 ft | 304 kts | 354° |
| 2026-04-20 21:04 | 40.90022 | -112.10907 | 10876 ft | 299 kts | 354° |
| 2026-04-20 21:05 | 40.92077 | -112.11130 | 10538 ft | 297 kts | 354° |
| 2026-04-20 21:05 | 40.94133 | -112.11013 | 10146 ft | 294 kts | 17° |
| 2026-04-20 21:05 | 40.95790 | -112.09667 | 9808 ft | 276 kts | 53° |
| 2026-04-20 21:05 | 40.96579 | -112.07474 | 9508 ft | 256 kts | 84° |
| 2026-04-20 21:06 | 40.96560 | -112.05250 | 9311 ft | 232 kts | 104° |
| 2026-04-20 21:06 | 40.96014 | -112.03342 | 8999 ft | 214 kts | 128° |
| 2026-04-20 21:06 | 40.94949 | -112.02145 | 8653 ft | 198 kts | 155° |
| 2026-04-20 21:06 | 40.93661 | -112.01556 | 8258 ft | 194 kts | 170° |
| 2026-04-20 21:07 | 40.92346 | -112.01279 | 7854 ft | 190 kts | 175° |
| 2026-04-20 21:07 | 40.91041 | -112.01108 | 7388 ft | 188 kts | 177° |
| 2026-04-20 21:07 | 40.89749 | -112.00965 | 6919 ft | 187 kts | 178° |
| 2026-04-20 21:07 | 40.88455 | -112.00821 | 6456 ft | 184 kts | 177° |
| 2026-04-20 21:08 | 40.87206 | -112.00676 | 6026 ft | 178 kts | 177° |
| 2026-04-20 21:08 | 40.85989 | -112.00533 | 5609 ft | 171 kts | 176° |
| 2026-04-20 21:08 | 40.84831 | -112.00398 | 5154 ft | 168 kts | 177° |
| 2026-04-20 21:08 | 40.83693 | -112.00266 | 4786 ft | 158 kts | 175° |
| 2026-04-20 21:09 | 40.82651 | -112.00141 | 4588 ft | 147 kts | 176° |
| 2026-04-20 21:09 | 40.81627 | -112.00024 | 4435 ft | 146 kts | 176° |
| 2026-04-20 21:09 | 40.80627 | -111.99912 | 4254 ft | 143 kts | 176° |
| 2026-04-20 21:09 | 40.79705 | -111.99807 | 4229 ft | 114 kts | 174° |
| 2026-04-20 21:10 | 40.79104 | -111.99734 | 4228 ft | 46 kts | 174° |
| 2026-04-20 21:10 | 40.78896 | -111.99698 | 4228 ft | 15 kts | 159° |
| 2026-04-20 21:10 | 40.78816 | -111.99655 | 4228 ft | 9 kts | 152° |
| 2026-04-20 21:10 | 40.78765 | -111.99599 | 4228 ft | 9 kts | 135° |
| 2026-04-20 21:11 | 40.78715 | -111.99536 | 4228 ft | 10 kts | 136° |
| 2026-04-20 21:11 | 40.78663 | -111.99472 | 4228 ft | 10 kts | 133° |
| 2026-04-20 21:11 | 40.78645 | -111.99387 | 4228 ft | 9 kts | 86° |
| 2026-04-20 21:11 | 40.78650 | -111.99317 | 4229 ft | 0 kts | 92° |
| 2026-04-20 21:12 | 40.78647 | -111.99313 | 4229 ft | 0 kts | 147° |
| 2026-04-20 21:12 | 40.78635 | -111.99314 | 4229 ft | 2 kts | 180° |
| 2026-04-20 21:12 | 40.78613 | -111.99306 | 4229 ft | 3 kts | 153° |
| 2026-04-20 21:12 | 40.78592 | -111.99287 | 4229 ft | 3 kts | 145° |
| 2026-04-20 21:13 | 40.78576 | -111.99274 | 4229 ft | 1 kts | 144° |
| 2026-04-20 21:13 | 40.78569 | -111.99266 | 4229 ft | 1 kts | 145° |
| 2026-04-20 21:13 | 40.78560 | -111.99258 | 4229 ft | 0 kts | 145° |